Time;durP1;ratioP1;P1;durP2;ratioP2;P2;SDS_P1;SDS_P2;PMS_P1;PMS_P2;Temp;Humidity;BMP_temperature;BMP_pressure;BME280_temperature;BME280_humidity;BME280_pressure;Samples;Min_cycle;Max_cycle;Signal;HPM_P1;HPM_P2
2022/09/16 00:00:19;;;;;;;5.67;2.12;;;;;;;16.21;76.58;97930.05;1727578;83;21937;-40
2022/09/16 00:02:46;;;;;;;3.25;1.98;;;;;;;16.24;76.43;97925.08;1727321;83;21071;-41
2022/09/16 00:05:13;;;;;;;2.40;2.12;;;;;;;16.25;76.39;97921.16;1727373;83;20935;-40
2022/09/16 00:07:40;;;;;;;2.30;2.10;;;;;;;16.22;76.28;97927.47;1727261;83;21199;-40
2022/09/16 00:10:08;;;;;;;2.45;2.22;;;;;;;16.18;76.33;97918.59;1727459;83;21051;-40
2022/09/16 00:12:35;;;;;;;2.52;2.12;;;;;;;16.22;76.24;97918.67;1727533;83;21113;-40
2022/09/16 00:15:05;;;;;;;2.67;2.42;;;;;;;16.21;76.19;97926.72;1727325;83;21508;-40
2022/09/16 00:17:33;;;;;;;4.90;2.67;;;;;;;16.13;76.38;97916.39;1727333;83;21600;-40
2022/09/16 00:20:00;;;;;;;2.62;2.20;;;;;;;16.11;76.54;97920.16;1722658;83;21043;-41
2022/09/16 00:22:28;;;;;;;2.87;2.35;;;;;;;16.09;76.65;97926.83;1727549;83;21070;-40
2022/09/16 00:24:54;;;;;;;2.90;2.60;;;;;;;16.16;76.63;97925.11;1731599;81;21730;-41
2022/09/16 00:27:21;;;;;;;2.72;2.50;;;;;;;16.22;76.53;97934.30;1753834;81;21275;-40
2022/09/16 00:29:48;;;;;;;9.85;3.08;;;;;;;16.21;76.50;97933.56;1753653;81;21040;-40
2022/09/16 00:32:14;;;;;;;3.92;2.42;;;;;;;16.18;76.48;97936.37;1753809;81;21572;-40
2022/09/16 00:34:41;;;;;;;5.72;3.00;;;;;;;16.18;76.54;97943.20;1753852;81;21573;-40
2022/09/16 00:37:08;;;;;;;4.33;2.95;;;;;;;16.16;76.48;97940.15;1753912;81;23184;-40
2022/09/16 00:39:36;;;;;;;2.90;2.70;;;;;;;16.15;76.64;97957.15;1753811;81;20998;-40
2022/09/16 00:42:03;;;;;;;3.40;3.08;;;;;;;16.06;76.79;97959.14;1754305;81;21038;-41
2022/09/16 00:44:56;;;;;;;2.67;2.47;;;;;;;15.96;77.20;97951.97;1753950;81;21058;-40
2022/09/16 00:47:38;;;;;;;6.00;2.62;;;;;;;15.90;77.49;97957.78;1754122;81;21026;-40
2022/09/16 00:50:37;;;;;;;3.72;2.80;;;;;;;15.91;77.57;97961.28;1752131;81;21151;-40
2022/09/16 00:53:12;;;;;;;3.20;2.90;;;;;;;15.87;77.67;97957.28;1754159;81;20978;-40
2022/09/16 00:55:39;;;;;;;3.70;2.87;;;;;;;15.80;77.96;97959.41;1753943;81;21014;-40
2022/09/16 00:58:29;;;;;;;6.12;3.30;;;;;;;15.81;78.11;97965.81;1753837;81;21021;-40
2022/09/16 01:00:55;;;;;;;4.67;3.65;;;;;;;15.89;77.94;97963.07;1752815;81;21144;-40
2022/09/16 01:03:23;;;;;;;4.15;3.37;;;;;;;15.93;77.73;97972.54;1753764;81;21282;-40
2022/09/16 01:05:49;;;;;;;6.72;3.27;;;;;;;15.88;77.67;97976.56;1753618;81;21529;-40
2022/09/16 01:08:17;;;;;;;5.10;2.95;;;;;;;15.80;77.72;97979.90;1753796;81;21034;-40
2022/09/16 01:10:44;;;;;;;3.87;3.10;;;;;;;15.75;77.87;97988.02;1753755;81;21054;-40
2022/09/16 01:13:12;;;;;;;5.50;3.22;;;;;;;15.76;77.71;97987.41;1753720;81;21520;-40
2022/09/16 01:15:56;;;;;;;4.00;3.60;;;;;;;15.76;77.68;97974.53;1753698;81;21235;-40
2022/09/16 01:18:58;;;;;;;5.30;3.90;;;;;;;15.73;77.79;97975.39;1737468;81;21529;-40
2022/09/16 01:21:43;;;;;;;4.58;3.30;;;;;;;15.69;77.82;97971.17;1753867;81;20907;-40
2022/09/16 01:24:27;;;;;;;4.42;3.00;;;;;;;15.63;77.75;97978.55;1753707;81;20982;-40
2022/09/16 01:27:16;;;;;;;3.55;3.25;;;;;;;15.64;77.52;97979.29;1675669;82;21038;-41
2022/09/16 01:30:15;;;;;;;4.37;3.98;;;;;;;15.58;77.47;97987.25;1727562;83;21138;-40
2022/09/16 01:33:00;;;;;;;4.17;3.40;;;;;;;15.46;77.63;97996.66;1727429;83;21549;-40
2022/09/16 01:35:51;;;;;;;3.40;3.10;;;;;;;15.43;77.78;98005.72;1727625;83;21545;-40
2022/09/16 01:38:35;;;;;;;4.33;3.87;;;;;;;15.43;77.78;97997.52;1725625;82;21008;-40
2022/09/16 01:41:22;;;;;;;4.90;3.50;;;;;;;15.41;77.73;97981.55;1726758;82;21002;-40
2022/09/16 01:44:09;;;;;;;3.90;3.50;;;;;;;15.35;77.70;97978.38;1727323;82;21318;-40
2022/09/16 01:46:45;;;;;;;4.92;3.47;;;;;;;15.32;77.68;97981.37;1727220;83;21070;-40
2022/09/16 01:49:26;;;;;;;3.58;3.27;;;;;;;15.36;77.64;97979.92;1727595;83;21055;-40
2022/09/16 01:52:18;;;;;;;3.92;3.62;;;;;;;15.36;77.54;97977.95;1726127;82;21682;-40
2022/09/16 01:54:53;;;;;;;4.55;3.50;;;;;;;15.34;77.49;97985.05;1727421;83;21051;-40
2022/09/16 01:57:46;;;;;;;4.17;3.22;;;;;;;15.36;77.28;97988.11;1726926;81;21101;-40
2022/09/16 02:00:13;;;;;;;4.05;3.35;;;;;;;15.40;77.08;97987.43;1727500;83;20955;-40
2022/09/16 02:02:55;;;;;;;3.80;3.40;;;;;;;15.39;76.95;97979.09;1727668;82;21584;-40
2022/09/16 02:05:34;;;;;;;5.08;3.55;;;;;;;15.37;77.03;97974.63;1727567;83;21055;-40
2022/09/16 02:08:13;;;;;;;4.77;3.57;;;;;;;15.36;76.94;97968.99;1708153;83;21536;-40
2022/09/16 02:10:45;;;;;;;3.50;3.20;;;;;;;15.35;76.96;97972.91;1727605;83;21216;-40
2022/09/16 02:13:38;;;;;;;4.75;3.12;;;;;;;15.41;76.84;97973.95;1727800;83;21012;-40
2022/09/16 02:16:10;;;;;;;3.27;2.95;;;;;;;15.44;76.70;97981.31;1727803;83;21525;-40
2022/09/16 02:18:39;;;;;;;6.90;3.60;;;;;;;15.40;76.76;97979.23;1727937;83;21533;-40
2022/09/16 02:21:10;;;;;;;4.80;3.30;;;;;;;15.39;76.79;97987.28;1727822;83;21046;-40
2022/09/16 02:23:42;;;;;;;3.30;3.00;;;;;;;15.40;76.70;97991.52;1727507;83;21313;-40
2022/09/16 02:26:11;;;;;;;3.50;3.20;;;;;;;15.50;76.48;97983.69;1726223;81;21550;-41
2022/09/16 02:28:40;;;;;;;4.92;3.22;;;;;;;15.51;76.32;97977.06;1727624;83;21074;-40
2022/09/16 02:31:09;;;;;;;3.33;3.02;;;;;;;15.50;76.34;97977.63;1727619;83;21090;-40
2022/09/16 02:33:48;;;;;;;4.95;3.30;;;;;;;15.49;76.37;97974.72;1727555;83;21632;-40
2022/09/16 02:36:19;;;;;;;4.37;3.12;;;;;;;15.52;76.38;97979.38;1727583;83;21246;-40
2022/09/16 02:38:53;;;;;;;4.30;3.00;;;;;;;15.59;76.13;97978.43;1727417;83;21039;-41
2022/09/16 02:41:19;;;;;;;3.95;3.33;;;;;;;15.61;76.21;97982.88;1727702;83;21070;-40
2022/09/16 02:43:46;;;;;;;4.45;3.52;;;;;;;15.56;76.20;97976.56;1727423;83;21094;-41
2022/09/16 02:46:27;;;;;;;4.20;3.40;;;;;;;15.51;76.39;97985.27;1727596;83;21050;-41
2022/09/16 02:49:25;;;;;;;4.22;3.50;;;;;;;15.49;76.52;97989.75;1727392;83;21216;-41
2022/09/16 02:52:49;;;;;;;3.72;2.95;;;;;;;15.51;76.52;97996.19;1727392;83;20986;-40
2022/09/16 02:55:39;;;;;;;5.03;3.50;;;;;;;15.49;76.66;97983.55;1665767;84;21572;-41
2022/09/16 02:58:06;;;;;;;7.55;3.27;;;;;;;15.42;76.87;97983.69;1665954;86;21596;-40
2022/09/16 03:00:38;;;;;;;3.80;3.20;;;;;;;15.45;76.92;97974.64;1689416;83;21049;-41
2022/09/16 03:03:05;;;;;;;5.75;3.40;;;;;;;15.51;76.73;97983.30;1702934;84;21860;-41
2022/09/16 03:05:31;;;;;;;3.90;3.50;;;;;;;15.49;76.76;97983.55;1702655;84;21482;-41
2022/09/16 03:08:02;;;;;;;5.40;3.90;;;;;;;15.45;76.88;97985.56;1702950;84;21593;-40
2022/09/16 03:10:32;;;;;;;6.87;3.30;;;;;;;15.39;77.05;97984.55;1702945;84;21060;-40
2022/09/16 03:13:30;;;;;;;4.22;3.20;;;;;;;15.38;77.17;97988.47;1702839;84;21002;-41
2022/09/16 03:16:34;;;;;;;6.10;3.58;;;;;;;15.44;77.00;97979.95;1703100;84;21203;-40
2022/09/16 03:19:12;;;;;;;4.45;3.55;;;;;;;15.46;77.02;97975.58;1703245;84;21031;-40
2022/09/16 03:21:51;;;;;;;6.58;4.30;;;;;;;15.42;77.11;97976.86;1691519;84;20968;-40
2022/09/16 03:24:32;;;;;;;3.92;3.02;;;;;;;15.39;77.05;97972.26;1703066;84;21027;-40
2022/09/16 03:27:22;;;;;;;3.60;3.22;;;;;;;15.37;77.02;97974.63;1711990;83;21083;-40
2022/09/16 03:29:56;;;;;;;4.67;3.45;;;;;;;15.40;77.02;97982.73;1718771;83;22053;-40
2022/09/16 03:32:30;;;;;;;5.28;3.90;;;;;;;15.38;77.15;97983.77;1719041;83;21087;-40
2022/09/16 03:35:10;;;;;;;7.37;4.15;;;;;;;15.35;77.32;97983.83;1719007;83;20995;-40
2022/09/16 03:37:37;;;;;;;;;;;;;;;15.34;77.26;97979.59;1721441;83;20925;-40
2022/09/16 03:40:08;;;;;;;5.53;4.28;;;;;;;15.31;77.26;97982.55;1718915;83;20208;-40
2022/09/16 03:42:41;;;;;;;5.47;3.67;;;;;;;15.28;77.29;97983.41;1718910;83;21775;-40
2022/09/16 03:45:13;;;;;;;5.92;3.58;;;;;;;15.30;77.44;97988.46;1718677;83;21578;-40
2022/09/16 03:47:43;;;;;;;4.58;3.90;;;;;;;15.28;77.47;97993.56;1719118;83;21227;-40
2022/09/16 03:50:10;;;;;;;5.58;3.22;;;;;;;15.21;77.45;98008.90;1713916;83;21051;-41
2022/09/16 03:52:38;;;;;;;5.47;3.50;;;;;;;15.17;77.58;98012.89;1718572;83;21063;-40
2022/09/16 03:55:06;;;;;;;5.55;3.92;;;;;;;15.16;77.51;98020.91;1718662;83;21145;-40
2022/09/16 03:57:33;;;;;;;5.35;3.50;;;;;;;15.13;77.63;98019.80;1692072;83;20940;-40
2022/09/16 04:00:01;;;;;;;5.53;3.80;;;;;;;15.07;77.87;98011.93;1718717;83;21325;-40
2022/09/16 04:02:29;;;;;;;4.35;3.70;;;;;;;15.00;77.95;98014.82;1717418;83;20992;-40
2022/09/16 04:04:56;;;;;;;8.13;3.58;;;;;;;14.87;78.18;98000.25;1718707;83;21582;-40
2022/09/16 04:07:22;;;;;;;4.97;3.58;;;;;;;14.99;78.25;98016.59;1718840;83;21570;-40
2022/09/16 04:09:49;;;;;;;4.65;3.95;;;;;;;15.02;78.19;98017.88;1718518;83;20992;-40
2022/09/16 04:12:16;;;;;;;5.53;4.35;;;;;;;15.02;78.30;98022.56;1718766;83;21079;-40
2022/09/16 04:14:43;;;;;;;5.55;4.37;;;;;;;15.02;78.42;98017.11;1718569;83;21079;-40
2022/09/16 04:17:09;;;;;;;5.08;4.00;;;;;;;15.03;78.40;98018.06;1718743;83;20988;-40
2022/09/16 04:19:36;;;;;;;4.62;4.20;;;;;;;15.11;78.23;98024.91;1718600;83;21161;-40
2022/09/16 04:22:02;;;;;;;5.45;4.80;;;;;;;15.15;78.15;98024.23;1718975;83;21317;-40
2022/09/16 04:24:29;;;;;;;4.33;3.92;;;;;;;15.17;78.21;98027.91;1718803;83;21486;-41
2022/09/16 04:26:56;;;;;;;5.60;3.98;;;;;;;15.17;78.23;98027.91;1718675;83;20985;-41
2022/09/16 04:29:23;;;;;;;5.42;3.80;;;;;;;15.16;78.22;98031.23;1718681;83;21044;-40
2022/09/16 04:31:50;;;;;;;5.42;3.30;;;;;;;15.23;78.19;98025.64;1718630;83;21141;-40
2022/09/16 04:34:18;;;;;;;5.47;4.42;;;;;;;15.26;78.25;98023.23;1718596;83;20900;-40
2022/09/16 04:36:44;;;;;;;7.22;4.37;;;;;;;15.23;78.40;98018.04;1718846;83;20995;-40
2022/09/16 04:39:11;;;;;;;5.20;4.15;;;;;;;15.21;78.49;98030.73;1718704;83;20988;-40
2022/09/16 04:41:38;;;;;;;7.58;3.95;;;;;;;15.16;78.57;98040.79;1718849;83;21098;-40
2022/09/16 04:44:05;;;;;;;7.72;4.15;;;;;;;15.21;78.54;98047.71;1718854;83;21265;-41
2022/09/16 04:46:31;;;;;;;6.53;4.22;;;;;;;15.23;78.70;98038.52;1718689;83;21031;-40
2022/09/16 04:48:59;;;;;;;5.67;4.53;;;;;;;15.19;78.76;98045.42;1718972;83;21036;-40
2022/09/16 04:51:27;;;;;;;6.72;4.20;;;;;;;15.18;78.97;98046.61;1718782;83;21060;-40
2022/09/16 04:53:56;;;;;;;4.37;3.98;;;;;;;15.20;79.12;98044.21;1718872;83;21033;-40
2022/09/16 04:56:27;;;;;;;6.10;4.80;;;;;;;15.30;78.94;98037.61;1719060;83;21337;-40
2022/09/16 04:58:57;;;;;;;6.78;4.60;;;;;;;15.35;78.86;98043.31;1718775;83;21039;-40
2022/09/16 05:01:29;;;;;;;6.58;4.72;;;;;;;15.37;78.89;98040.95;1742785;82;20969;-40
2022/09/16 05:04:02;;;;;;;5.35;4.40;;;;;;;15.38;79.01;98046.58;1748702;82;21791;-40
2022/09/16 05:06:32;;;;;;;5.83;4.47;;;;;;;15.40;79.01;98052.38;1748689;81;21025;-40
2022/09/16 05:08:59;;;;;;;4.97;4.20;;;;;;;15.51;78.83;98061.74;1748467;82;21235;-40
2022/09/16 05:11:35;;;;;;;5.30;4.37;;;;;;;15.52;78.75;98068.75;1748565;82;21894;-40
2022/09/16 05:14:05;;;;;;;5.47;4.35;;;;;;;15.46;78.90;98069.04;1748424;82;21021;-40
2022/09/16 05:16:32;;;;;;;5.37;3.70;;;;;;;15.50;79.05;98075.19;1748744;82;21662;-40
2022/09/16 05:19:00;;;;;;;5.30;4.00;;;;;;;15.55;78.97;98071.39;1748694;82;21564;-41
2022/09/16 05:21:27;;;;;;;7.12;4.37;;;;;;;15.56;79.03;98070.20;1748754;82;21039;-40
2022/09/16 05:23:57;;;;;;;7.12;4.60;;;;;;;15.54;79.14;98078.67;1748314;82;21021;-41
2022/09/16 05:26:27;;;;;;;5.00;4.10;;;;;;;15.54;79.31;98075.94;1731733;82;21021;-41
2022/09/16 05:28:53;;;;;;;6.17;4.30;;;;;;;15.62;79.50;98070.48;1742953;82;21041;-40
2022/09/16 05:31:24;;;;;;;4.97;4.37;;;;;;;15.71;79.56;98065.80;1743069;81;21050;-40
2022/09/16 05:34:00;;;;;;;6.37;4.72;;;;;;;15.73;79.74;98065.56;1742875;82;21261;-40
2022/09/16 05:36:30;;;;;;;4.47;4.08;;;;;;;15.78;79.85;98062.30;1730311;81;21012;-40
2022/09/16 05:38:57;;;;;;;;;;;;;;;15.84;79.66;98066.66;1745628;81;20989;-40
2022/09/16 05:41:24;;;;;;;5.17;4.20;;;;;;;15.94;79.33;98068.38;1742744;81;20363;-40
2022/09/16 05:43:51;;;;;;;7.53;5.10;;;;;;;15.88;79.57;98068.11;1742997;82;21017;-40
2022/09/16 05:46:20;;;;;;;5.95;4.80;;;;;;;15.89;79.22;98068.89;1743120;82;21131;-41
2022/09/16 05:48:47;;;;;;;7.37;5.00;;;;;;;15.88;79.32;98070.84;1738400;81;20934;-41
2022/09/16 05:51:16;;;;;;;5.62;5.10;;;;;;;15.91;79.25;98066.51;1743289;82;21010;-40
2022/09/16 05:53:45;;;;;;;7.03;5.37;;;;;;;15.99;79.02;98075.48;1743149;81;21571;-40
2022/09/16 05:56:17;;;;;;;6.53;5.83;;;;;;;16.03;78.74;98076.16;1743359;81;21057;-41
2022/09/16 05:58:43;;;;;;;6.92;5.60;;;;;;;16.02;78.80;98082.08;1742734;81;21202;-41
2022/09/16 06:01:16;;;;;;;6.30;4.97;;;;;;;16.00;78.84;98088.55;1743128;82;20957;-40
2022/09/16 06:03:45;;;;;;;5.92;5.37;;;;;;;16.01;78.83;98075.83;1743087;82;21002;-40
2022/09/16 06:06:25;;;;;;;6.40;5.80;;;;;;;16.06;78.87;98073.95;1743029;82;21026;-40
2022/09/16 06:08:55;;;;;;;5.92;5.33;;;;;;;16.14;78.79;98071.81;1743147;82;21596;-40
2022/09/16 06:11:24;;;;;;;6.05;5.50;;;;;;;16.17;78.80;98077.04;1743014;81;21548;-40
2022/09/16 06:13:56;;;;;;;5.83;5.22;;;;;;;16.21;78.40;98078.48;1742945;82;21073;-40
2022/09/16 06:16:24;;;;;;;7.17;5.62;;;;;;;16.26;78.20;98079.34;1742648;81;20966;-41
2022/09/16 06:18:54;;;;;;;6.87;6.17;;;;;;;16.28;78.06;98077.53;1751597;80;21602;-40
2022/09/16 06:21:21;;;;;;;8.20;5.63;;;;;;;16.24;78.15;98083.09;1753819;80;21057;-40
2022/09/16 06:23:48;;;;;;;9.10;5.75;;;;;;;16.23;78.16;98082.91;1705960;84;23134;-40
2022/09/16 06:26:21;;;;;;;6.60;5.87;;;;;;;16.26;78.15;98088.14;1736327;82;20973;-40
2022/09/16 06:28:48;;;;;;;6.58;5.90;;;;;;;16.33;78.16;98087.36;1748406;81;21001;-40
2022/09/16 06:31:17;;;;;;;7.50;6.30;;;;;;;16.40;77.92;98090.52;1750538;82;21076;-40
2022/09/16 06:33:44;;;;;;;6.03;5.42;;;;;;;16.42;77.95;98090.84;1750841;82;21056;-40
2022/09/16 06:36:15;;;;;;;8.90;5.67;;;;;;;16.49;77.73;98096.16;1750963;82;21810;-41
2022/09/16 06:38:43;;;;;;;7.65;5.60;;;;;;;16.58;77.50;98090.07;1750267;81;21040;-40
2022/09/16 06:41:11;;;;;;;8.90;5.50;;;;;;;16.67;77.23;98095.13;1750966;82;21004;-40
2022/09/16 06:43:38;;;;;;;6.97;5.10;;;;;;;16.73;77.24;98097.52;1750609;82;21072;-40
2022/09/16 06:46:12;;;;;;;6.67;5.55;;;;;;;16.81;76.67;98101.59;1750530;82;21012;-41
2022/09/16 06:48:40;;;;;;;6.50;5.40;;;;;;;16.88;76.46;98104.16;1750580;82;21230;-40
2022/09/16 06:51:29;;;;;;;6.53;5.22;;;;;;;17.02;76.21;98106.34;1750746;82;20949;-40
2022/09/16 06:54:04;;;;;;;6.90;5.28;;;;;;;17.11;76.03;98101.00;1750886;82;21318;-40
2022/09/16 06:56:32;;;;;;;8.93;5.55;;;;;;;17.18;75.24;98107.67;1752152;81;21026;-40
2022/09/16 06:58:59;;;;;;;6.40;4.55;;;;;;;17.21;75.40;98102.68;1753862;81;21017;-41
2022/09/16 07:01:28;;;;;;;5.15;4.05;;;;;;;17.32;75.42;98107.27;1719675;83;21158;-40
2022/09/16 07:03:56;;;;;;;6.70;4.85;;;;;;;17.46;74.54;98106.86;1720450;83;20969;-41
2022/09/16 07:06:24;;;;;;;4.80;4.25;;;;;;;17.55;74.48;98111.70;1720006;83;21499;-41
2022/09/16 07:08:53;;;;;;;6.00;4.80;;;;;;;17.59;74.45;98106.30;1665343;84;21022;-41
2022/09/16 07:11:21;;;;;;;6.87;4.05;;;;;;;17.62;73.65;98119.13;1690593;84;21625;-41
2022/09/16 07:13:49;;;;;;;4.58;4.10;;;;;;;17.60;73.31;98121.55;1719743;83;21206;-41
2022/09/16 07:16:23;;;;;;;7.50;4.45;;;;;;;17.59;73.18;98126.86;1720460;83;20893;-41
2022/09/16 07:18:55;;;;;;;4.80;4.20;;;;;;;17.59;72.94;98125.48;1720245;83;21511;-41
2022/09/16 07:21:27;;;;;;;7.20;4.78;;;;;;;17.53;72.54;98131.30;1720496;83;21016;-41
2022/09/16 07:23:54;;;;;;;5.80;3.80;;;;;;;17.45;72.87;98124.50;1720227;83;21020;-41
2022/09/16 07:26:25;;;;;;;9.08;3.80;;;;;;;17.45;72.60;98129.98;1720437;83;21818;-41
2022/09/16 07:28:52;;;;;;;5.90;4.30;;;;;;;17.51;72.39;98135.70;1708887;83;21029;-41
2022/09/16 07:31:26;;;;;;;4.00;3.58;;;;;;;17.56;72.38;98134.56;1707158;84;20957;-41
2022/09/16 07:33:54;;;;;;;5.80;4.30;;;;;;;17.57;72.09;98136.70;1707140;84;21029;-41
2022/09/16 07:36:26;;;;;;;4.70;3.58;;;;;;;17.61;72.32;98130.55;1706761;84;21045;-41
2022/09/16 07:38:57;;;;;;;6.00;3.60;;;;;;;17.71;71.76;98127.50;1705609;84;21771;-41
2022/09/16 07:41:28;;;;;;;6.20;4.00;;;;;;;17.85;71.36;98118.67;1740942;82;21022;-43
2022/09/16 07:43:57;;;;;;;5.65;3.70;;;;;;;17.96;71.37;98123.23;1741516;82;21038;-44
2022/09/16 07:46:27;;;;;;;8.08;4.15;;;;;;;18.06;70.66;98116.63;1741392;82;20943;-44
2022/09/16 07:48:54;;;;;;;6.65;3.45;;;;;;;18.11;69.93;98118.83;1741509;82;25554;-44
2022/09/16 07:51:23;;;;;;;8.48;4.03;;;;;;;18.19;69.87;98117.41;1741220;82;23220;-44
2022/09/16 07:53:59;;;;;;;6.55;3.58;;;;;;;18.30;68.48;98119.83;1741310;82;21593;-44
2022/09/16 07:56:28;;;;;;;6.65;4.00;;;;;;;18.37;68.78;98128.58;1740526;82;20989;-44
2022/09/16 07:58:55;;;;;;;6.70;3.75;;;;;;;18.39;68.67;98126.17;1734504;82;21069;-44
2022/09/16 08:01:22;;;;;;;7.45;4.28;;;;;;;18.42;68.06;98118.42;1734216;82;21025;-44
2022/09/16 08:03:49;;;;;;;9.13;3.92;;;;;;;18.43;67.55;98121.34;1734188;82;21131;-44
2022/09/16 08:06:22;;;;;;;6.37;4.10;;;;;;;18.47;67.51;98116.50;1734659;82;20997;-44
2022/09/16 08:08:54;;;;;;;8.10;3.87;;;;;;;18.58;67.63;98118.92;1735072;82;21527;-44
2022/09/16 08:11:21;;;;;;;5.87;3.80;;;;;;;18.70;66.75;98122.23;1734679;82;20982;-44
2022/09/16 08:13:48;;;;;;;7.28;4.00;;;;;;;18.81;65.31;98120.50;1734612;82;20978;-44
2022/09/16 08:16:21;;;;;;;5.30;3.85;;;;;;;18.88;65.04;98125.77;1734696;82;21139;-44
2022/09/16 08:18:51;;;;;;;7.12;3.62;;;;;;;18.96;64.54;98126.44;1729846;82;21540;-44
2022/09/16 08:21:21;;;;;;;7.03;3.92;;;;;;;19.06;63.82;98128.05;1734637;82;20978;-44
2022/09/16 08:23:48;;;;;;;6.70;3.37;;;;;;;19.15;63.28;98123.23;1734736;82;21073;-44
2022/09/16 08:26:16;;;;;;;6.00;3.67;;;;;;;19.27;63.41;98125.74;1736516;82;20994;-44
2022/09/16 08:28:45;;;;;;;7.60;3.62;;;;;;;19.44;61.83;98126.52;1744782;81;21173;-44
2022/09/16 08:31:12;;;;;;;9.68;3.80;;;;;;;19.56;61.88;98124.16;1750515;82;20968;-44
2022/09/16 08:33:40;;;;;;;6.42;3.83;;;;;;;19.67;61.10;98117.63;1750301;82;21074;-44
2022/09/16 08:36:20;;;;;;;6.40;3.95;;;;;;;19.78;60.78;98116.63;1750671;82;21538;-44
2022/09/16 08:38:48;;;;;;;;;;;;;;;19.87;58.56;98120.80;1753447;82;21039;-44
2022/09/16 08:41:41;;;;;;;5.75;3.50;;;;;;;19.81;58.06;98093.72;1752344;81;21202;-44
2022/09/16 08:44:59;;;;;;;9.38;4.08;;;;;;;19.85;59.26;98112.22;1743938;81;21546;-44
2022/09/16 08:48:03;;;;;;;6.97;3.60;;;;;;;19.92;58.14;98116.09;1755209;81;20950;-44
2022/09/16 08:50:39;;;;;;;4.60;3.42;;;;;;;20.00;57.71;98117.94;1694434;82;21147;-44
2022/09/16 08:53:14;;;;;;;7.15;4.05;;;;;;;20.09;57.25;98124.24;1753624;81;21080;-44
2022/09/16 08:55:47;;;;;;;6.03;3.45;;;;;;;20.17;56.75;98122.77;1719924;83;21142;-44
2022/09/16 08:58:19;;;;;;;6.97;3.40;;;;;;;20.28;55.47;98129.97;1693821;83;21534;-44
2022/09/16 09:00:54;;;;;;;5.72;3.42;;;;;;;20.34;55.20;98137.82;1684791;84;21008;-43
2022/09/16 09:03:41;;;;;;;6.12;3.58;;;;;;;20.42;55.63;98129.29;1705091;83;21566;-43
2022/09/16 09:06:30;;;;;;;7.85;3.33;;;;;;;20.58;55.38;98129.00;1715948;83;21838;-44
2022/09/16 09:09:05;;;;;;;7.05;3.55;;;;;;;20.77;54.19;98136.07;1705380;83;21243;-44
2022/09/16 09:12:01;;;;;;;6.05;3.22;;;;;;;20.94;53.66;98137.33;1715970;83;20964;-44
2022/09/16 09:15:05;;;;;;;6.72;3.40;;;;;;;21.08;52.52;98133.20;1673453;84;21215;-44
2022/09/16 09:18:08;;;;;;;5.42;2.87;;;;;;;21.10;51.81;98130.15;1660479;85;21066;-41
2022/09/16 09:20:54;;;;;;;4.45;2.83;;;;;;;20.91;51.59;98129.98;1718634;83;21074;-41
2022/09/16 09:23:38;;;;;;;5.42;3.17;;;;;;;20.74;53.17;98129.50;1668255;83;21119;-41
2022/09/16 09:26:21;;;;;;;7.25;3.17;;;;;;;20.75;53.75;98132.42;1696217;83;21019;-41
2022/09/16 09:29:33;;;;;;;5.20;2.95;;;;;;;20.82;53.30;98128.58;1695998;83;21061;-41
2022/09/16 09:32:15;;;;;;;5.87;2.83;;;;;;;20.91;53.96;98127.23;1709546;83;21029;-41
2022/09/16 09:34:53;;;;;;;3.80;2.90;;;;;;;20.90;52.46;98128.45;1751095;81;21608;-41
2022/09/16 09:37:56;;;;;;;3.83;2.67;;;;;;;20.85;52.63;98126.30;1750729;82;23261;-42
2022/09/16 09:43:32;;;;;;;4.75;2.90;;;;;;;20.85;53.38;98130.44;1779029;79;22342;-41
2022/09/16 09:46:07;;;;;;;6.45;3.05;;;;;;;20.79;53.26;98133.64;1745892;81;20972;-41
2022/09/16 09:48:50;;;;;;;3.60;2.80;;;;;;;20.73;52.39;98138.21;1755671;81;23171;-42
2022/09/16 09:51:31;;;;;;;6.08;2.85;;;;;;;20.61;52.33;98138.52;1722178;83;20960;-42
2022/09/16 09:54:02;;;;;;;4.45;2.62;;;;;;;20.61;53.21;98146.01;1708925;83;21052;-41
2022/09/16 09:56:44;;;;;;;4.03;2.72;;;;;;;20.64;51.74;98146.46;1720315;83;21263;-41
2022/09/16 09:59:43;;;;;;;4.92;3.05;;;;;;;20.56;51.67;98154.27;1723284;83;21016;-41
2022/09/16 10:02:19;;;;;;;6.37;3.05;;;;;;;20.53;52.33;98140.61;1668455;83;21255;-45
2022/09/16 10:04:46;;;;;;;4.47;3.15;;;;;;;20.48;52.67;98148.13;1697328;84;21017;-45
2022/09/16 10:07:16;;;;;;;4.75;2.98;;;;;;;20.40;52.03;98150.38;1708673;84;21552;-45
2022/09/16 10:09:55;;;;;;;5.08;2.90;;;;;;;20.28;52.41;98148.49;1709925;83;21045;-45
2022/09/16 10:12:31;;;;;;;4.80;2.98;;;;;;;20.21;53.32;98152.28;1704346;83;21535;-44
2022/09/16 10:15:00;;;;;;;5.05;3.00;;;;;;;20.19;52.55;98149.20;1720087;83;21086;-42
2022/09/16 10:17:32;;;;;;;5.42;3.05;;;;;;;20.24;52.86;98158.24;1723398;83;21005;-41
2022/09/16 10:20:12;;;;;;;6.40;3.42;;;;;;;20.34;52.17;98156.31;1719967;83;20981;-42
2022/09/16 10:22:34;;;;;;;5.97;2.90;;;;;;;20.45;52.00;98156.67;1719671;83;21065;-42
2022/09/16 10:25:06;;;;;;;5.58;2.90;;;;;;;20.64;52.06;98154.72;1720632;83;21037;-41
2022/09/16 10:27:37;;;;;;;4.90;2.83;;;;;;;20.94;52.02;98148.35;1720692;83;21241;-41
2022/09/16 10:30:20;;;;;;;5.58;2.85;;;;;;;21.34;50.67;98140.58;1693880;83;21534;-41
2022/09/16 10:33:04;;;;;;;5.42;3.00;;;;;;;21.71;49.88;98148.94;1720567;83;21049;-41
2022/09/16 10:35:36;;;;;;;4.65;2.52;;;;;;;21.98;48.18;98150.25;1720693;83;21029;-41
2022/09/16 10:38:18;;;;;;;4.58;2.52;;;;;;;22.10;47.35;98150.69;1720431;83;21045;-42
2022/09/16 10:40:59;;;;;;;4.78;2.70;;;;;;;22.03;47.80;98148.25;1720933;83;21096;-42
2022/09/16 10:43:28;;;;;;;4.90;3.00;;;;;;;21.97;48.14;98145.22;1701290;84;21040;-42
2022/09/16 10:45:54;;;;;;;4.10;2.95;;;;;;;21.91;48.46;98142.91;1698015;84;20992;-42
2022/09/16 10:48:25;;;;;;;4.25;2.90;;;;;;;21.76;48.05;98155.81;1697803;84;20968;-42
2022/09/16 10:51:01;;;;;;;3.83;2.60;;;;;;;21.55;48.16;98154.78;1698147;84;21095;-42
2022/09/16 10:53:39;;;;;;;5.17;2.85;;;;;;;21.28;48.60;98150.67;1697477;84;21265;-42
2022/09/16 10:56:19;;;;;;;4.12;2.45;;;;;;;21.06;48.81;98149.41;1700556;84;21001;-42
2022/09/16 10:58:48;;;;;;;4.90;2.45;;;;;;;20.89;49.71;98150.94;1705874;84;21026;-44
2022/09/16 11:01:41;;;;;;;6.37;2.47;;;;;;;20.78;50.25;98150.00;1705743;84;21021;-45
2022/09/16 11:04:55;;;;;;;3.83;2.52;;;;;;;20.69;49.95;98156.87;1736581;81;21073;-44
2022/09/16 11:07:43;;;;;;;4.37;3.10;;;;;;;20.61;50.52;98146.78;1734574;82;21119;-45
2022/09/16 11:10:26;;;;;;;4.00;2.92;;;;;;;20.70;50.70;98162.55;1734347;81;21029;-45
2022/09/16 11:13:16;;;;;;;4.80;2.70;;;;;;;20.78;50.39;98164.55;1734616;82;20942;-45
2022/09/16 11:16:07;;;;;;;5.10;2.87;;;;;;;20.77;50.29;98162.23;1734424;82;20962;-45
2022/09/16 11:19:00;;;;;;;4.10;2.85;;;;;;;20.67;50.95;98159.34;1734627;82;21058;-45
2022/09/16 11:21:55;;;;;;;6.33;3.15;;;;;;;20.57;50.72;98159.16;1733886;82;21263;-45
2022/09/16 11:24:33;;;;;;;6.60;3.10;;;;;;;20.42;50.92;98157.59;1734426;82;21021;-45
2022/09/16 11:27:27;;;;;;;5.15;3.00;;;;;;;20.28;51.49;98158.86;1734513;82;20973;-45
2022/09/16 11:30:13;;;;;;;3.35;2.67;;;;;;;20.27;51.36;98155.98;1734726;82;20961;-45
2022/09/16 11:33:29;;;;;;;4.60;3.12;;;;;;;20.45;50.88;98162.17;1734702;82;21041;-45
2022/09/16 11:36:13;;;;;;;4.60;2.92;;;;;;;20.71;49.81;98157.20;1734702;82;21246;-45
2022/09/16 11:39:02;;;;;;;3.87;3.12;;;;;;;20.94;50.14;98157.99;1734660;82;21108;-45
2022/09/16 11:41:41;;;;;;;6.35;2.90;;;;;;;21.13;49.07;98166.45;1734736;81;21070;-45
2022/09/16 11:44:32;;;;;;;4.58;2.80;;;;;;;21.24;48.00;98158.50;1734543;82;21078;-45
2022/09/16 11:47:19;;;;;;;5.92;3.67;;;;;;;21.30;48.08;98153.11;1734472;82;21037;-45
2022/09/16 11:49:51;;;;;;;5.05;2.72;;;;;;;21.37;48.83;98150.06;1734360;82;21222;-45
2022/09/16 11:52:50;;;;;;;4.17;3.15;;;;;;;21.38;48.15;98158.48;1734537;82;21076;-45
2022/09/16 11:55:50;;;;;;;5.23;2.70;;;;;;;21.39;48.07;98161.41;1734593;82;21034;-45
2022/09/16 11:58:37;;;;;;;4.95;2.60;;;;;;;21.35;47.01;98165.55;1733776;82;21001;-45
2022/09/16 12:01:43;;;;;;;4.58;2.42;;;;;;;21.28;48.13;98165.23;1734569;82;21081;-45
2022/09/16 12:04:24;;;;;;;3.60;2.80;;;;;;;21.32;48.15;98169.97;1734706;82;21139;-45
2022/09/16 12:07:09;;;;;;;5.83;2.77;;;;;;;21.38;47.30;98168.75;1734340;82;21083;-45
2022/09/16 12:09:44;;;;;;;5.22;2.62;;;;;;;21.36;47.10;98162.91;1737118;82;20923;-45
2022/09/16 12:12:19;;;;;;;5.72;2.75;;;;;;;21.29;48.25;98166.77;1702684;83;21108;-45
2022/09/16 12:15:01;;;;;;;3.98;2.60;;;;;;;21.20;48.09;98177.80;1682728;84;21534;-45